createdAt,value
2023-02-21T00:00:34.927Z,86
2023-02-21T00:01:36.233Z,86
2023-02-21T00:02:37.543Z,86
2023-02-21T00:03:38.961Z,86
2023-02-21T00:04:40.381Z,86
2023-02-21T00:05:41.981Z,86
2023-02-21T00:06:43.470Z,86
2023-02-21T00:07:44.883Z,86
2023-02-21T00:08:45.507Z,86
2023-02-21T00:09:46.911Z,86
2023-02-21T00:10:48.329Z,86
2023-02-21T00:11:49.184Z,86
2023-02-21T00:12:50.323Z,86.1
2023-02-21T00:13:52.174Z,86.1
2023-02-21T00:14:53.590Z,86.1
2023-02-21T00:15:55.003Z,86.1
2023-02-21T00:16:56.442Z,86.1
2023-02-21T00:17:57.830Z,86.2
2023-02-21T00:18:58.970Z,86.2
2023-02-21T00:20:00.143Z,86.2
2023-02-21T00:21:01.248Z,86.2
2023-02-21T00:22:02.389Z,86.1
2023-02-21T00:23:03.239Z,86.1
2023-02-21T00:24:04.690Z,86.1
2023-02-21T00:25:05.970Z,86.1
2023-02-21T00:26:07.377Z,86.1
2023-02-21T00:27:08.797Z,86.1
2023-02-21T00:28:09.934Z,86.1
2023-02-21T00:29:11.341Z,86.1
2023-02-21T00:30:12.441Z,86.1
2023-02-21T00:31:14.660Z,86.1
2023-02-21T00:32:16.166Z,86.1
2023-02-21T00:33:17.489Z,86.1
2023-02-21T00:34:18.989Z,86.1
2023-02-21T00:35:20.161Z,86.1
2023-02-21T00:36:21.578Z,86.1
2023-02-21T00:37:22.991Z,86.1
2023-02-21T00:38:27.389Z,86.1
2023-02-21T00:39:28.520Z,86.1
2023-02-21T00:40:29.655Z,86.1
2023-02-21T00:41:31.067Z,86.1
2023-02-21T00:42:31.931Z,86.1
2023-02-21T00:43:36.692Z,86.1
2023-02-21T00:44:38.588Z,86.2
2023-02-21T00:45:40.197Z,86.2
2023-02-21T00:46:41.313Z,86.2
2023-02-21T00:47:42.777Z,86.2
2023-02-21T00:48:44.149Z,86.3
2023-02-21T00:49:45.568Z,86.3
2023-02-21T00:50:46.748Z,86.4
2023-02-21T00:51:48.158Z,86.5
2023-02-21T00:52:49.293Z,86.6
2023-02-21T00:53:50.425Z,86.7
2023-02-21T00:54:51.848Z,86.7
2023-02-21T00:55:52.980Z,86.8
2023-02-21T00:56:54.390Z,86.9
2023-02-21T00:57:55.809Z,86.9
2023-02-21T00:58:56.991Z,87
2023-02-21T00:59:58.165Z,87
2023-02-21T01:00:59.647Z,87.1
2023-02-21T01:02:01.037Z,87.1
2023-02-21T01:03:01.965Z,87.2
2023-02-21T01:04:03.012Z,87.2
2023-02-21T01:06:21.030Z,87.4
2023-02-21T01:07:22.213Z,87.5
2023-02-21T01:08:23.356Z,87.6
2023-02-21T01:09:24.791Z,87.6
2023-02-21T01:10:26.176Z,87.7
2023-02-21T01:11:27.038Z,87.7
2023-02-21T01:12:28.455Z,87.7
2023-02-21T01:13:29.585Z,87.8
2023-02-21T01:14:31.000Z,87.8
2023-02-21T01:15:32.714Z,87.8
2023-02-21T01:16:34.103Z,87.8
2023-02-21T01:17:35.510Z,87.8
2023-02-21T01:18:36.714Z,87.7
2023-02-21T01:19:38.097Z,87.7
2023-02-21T01:20:39.514Z,87.6
2023-02-21T01:21:40.929Z,87.6
2023-02-21T01:22:42.342Z,87.5
2023-02-21T01:23:43.760Z,87.5
2023-02-21T01:24:45.170Z,87.5
2023-02-21T01:25:46.342Z,87.4
2023-02-21T01:26:47.480Z,87.4
2023-02-21T01:27:48.895Z,87.4
2023-02-21T01:28:50.313Z,87.3
2023-02-21T01:29:51.735Z,87.3
2023-02-21T01:30:53.093Z,87.3
2023-02-21T01:31:54.490Z,87.3
2023-02-21T01:32:55.909Z,87.3
2023-02-21T01:33:57.097Z,87.3
2023-02-21T01:34:58.469Z,87.3
2023-02-21T01:35:59.882Z,87.3
2023-02-21T01:37:01.290Z,87.3
2023-02-21T01:38:02.709Z,87.3
2023-02-21T01:39:04.112Z,87.3
2023-02-21T01:40:05.531Z,87.3
2023-02-21T01:41:06.944Z,87.3
2023-02-21T01:42:08.078Z,87.3
2023-02-21T01:43:09.212Z,87.2
2023-02-21T01:44:10.387Z,87.2
2023-02-21T01:45:11.478Z,87.2
2023-02-21T01:46:12.870Z,87.2
2023-02-21T01:47:14.067Z,87.2
2023-02-21T01:48:15.484Z,87.1
2023-02-21T01:49:16.630Z,87.1
2023-02-21T01:50:18.029Z,87.1
2023-02-21T01:51:19.442Z,87.1
2023-02-21T01:52:20.852Z,87.1
2023-02-21T01:53:22.277Z,87.1
2023-02-21T01:54:23.283Z,87.1
2023-02-21T01:55:24.444Z,87.1
2023-02-21T01:56:25.558Z,87.1
2023-02-21T01:57:26.969Z,87
2023-02-21T01:58:28.383Z,87
2023-02-21T01:59:29.805Z,87
2023-02-21T02:00:31.222Z,87
2023-02-21T02:01:32.392Z,87
2023-02-21T02:02:33.782Z,87
2023-02-21T02:03:35.193Z,87
2023-02-21T02:04:36.682Z,87
2023-02-21T02:05:37.803Z,87
2023-02-21T02:06:39.216Z,87
2023-02-21T02:07:40.630Z,87
2023-02-21T02:08:42.057Z,87.1
2023-02-21T02:09:43.501Z,87.1
2023-02-21T02:10:44.685Z,87.1
2023-02-21T02:11:46.115Z,87.2
2023-02-21T02:12:47.510Z,87.2
2023-02-21T02:13:48.929Z,87.3
2023-02-21T02:14:50.339Z,87.4
2023-02-21T02:15:51.520Z,87.4
2023-02-21T02:16:53.061Z,87.5
2023-02-21T02:17:54.453Z,87.5
2023-02-21T02:18:55.852Z,87.5
2023-02-21T02:19:57.015Z,87.5
2023-02-21T02:20:58.418Z,87.6
2023-02-21T02:21:59.540Z,87.5
2023-02-21T02:23:00.964Z,87.5
2023-02-21T02:24:02.370Z,87.5
2023-02-21T02:25:03.783Z,87.5
2023-02-21T02:26:05.202Z,87.4
2023-02-21T02:27:06.614Z,87.4
2023-02-21T02:28:07.759Z,87.4
2023-02-21T02:29:09.173Z,87.4
2023-02-21T02:30:10.133Z,87.4
2023-02-21T02:31:11.482Z,87.3
2023-02-21T02:32:12.772Z,87.3
2023-02-21T02:33:14.206Z,87.2
2023-02-21T02:34:15.621Z,87.2
2023-02-21T02:35:16.824Z,87.1
2023-02-21T02:36:18.119Z,87.1
2023-02-21T02:37:19.512Z,87
2023-02-21T02:38:20.930Z,86.9
2023-02-21T02:39:22.343Z,86.9
2023-02-21T02:40:23.765Z,86.8
2023-02-21T02:41:24.899Z,86.7
2023-02-21T02:42:26.322Z,86.7
2023-02-21T02:43:27.499Z,86.6
2023-02-21T02:44:28.640Z,86.6
2023-02-21T02:45:29.773Z,86.5
2023-02-21T02:46:31.100Z,86.5
2023-02-21T02:47:32.241Z,86.5
2023-02-21T02:48:33.657Z,86.4
2023-02-21T02:49:35.068Z,86.4
2023-02-21T02:50:36.282Z,86.4
2023-02-21T02:51:37.672Z,86.4
2023-02-21T02:52:39.110Z,86.3
2023-02-21T02:53:40.506Z,86.3
2023-02-21T02:54:41.996Z,86.3
2023-02-21T02:55:43.427Z,86.3
2023-02-21T02:56:44.321Z,86.3
2023-02-21T02:57:45.456Z,86.3
2023-02-21T02:58:46.875Z,86.2
2023-02-21T02:59:48.051Z,86.2
2023-02-21T03:00:49.230Z,86.2
2023-02-21T03:01:50.606Z,86.2
2023-02-21T03:02:51.807Z,86.2
2023-02-21T03:03:53.017Z,86.2
2023-02-21T03:04:54.127Z,86.3
2023-02-21T03:05:55.323Z,86.3
2023-02-21T03:06:56.719Z,86.3
2023-02-21T03:07:58.133Z,86.4
2023-02-21T03:08:59.032Z,86.5
2023-02-21T03:10:00.166Z,86.5
2023-02-21T03:11:01.316Z,86.6
2023-02-21T03:12:02.442Z,86.6
2023-02-21T03:13:03.858Z,86.7
2023-02-21T03:14:05.001Z,86.7
2023-02-21T03:15:06.209Z,86.7
2023-02-21T03:16:07.794Z,86.8
2023-02-21T03:17:08.702Z,86.9
2023-02-21T03:18:10.367Z,86.9
2023-02-21T03:19:11.509Z,86.9
2023-02-21T03:20:12.915Z,87
2023-02-21T03:21:15.405Z,87.1
2023-02-21T03:22:16.921Z,87.1
2023-02-21T03:23:18.328Z,87.1
2023-02-21T03:24:19.196Z,87.2
2023-02-21T03:25:20.599Z,87.2
2023-02-21T03:26:21.735Z,87.3
2023-02-21T03:27:23.157Z,87.3
2023-02-21T03:28:24.564Z,87.3
2023-02-21T03:29:25.704Z,87.3
2023-02-21T03:30:27.177Z,87.3
2023-02-21T03:31:28.596Z,87.3
2023-02-21T03:32:30.083Z,87.3
2023-02-21T03:33:31.498Z,87.3
2023-02-21T03:34:32.638Z,87.2
2023-02-21T03:35:33.544Z,87.2
2023-02-21T03:36:34.690Z,87.2
2023-02-21T03:37:35.592Z,87.2
2023-02-21T03:38:36.721Z,87.2
2023-02-21T03:39:38.137Z,87.2
2023-02-21T03:40:39.317Z,87.1
2023-02-21T03:41:40.724Z,87.1
2023-02-21T03:42:41.900Z,87.1
2023-02-21T03:43:43.326Z,87.1
2023-02-21T03:44:44.448Z,87
2023-02-21T03:45:45.904Z,87
2023-02-21T03:46:47.417Z,87
2023-02-21T03:47:48.819Z,87
2023-02-21T03:48:50.234Z,87
2023-02-21T03:49:51.412Z,87
2023-02-21T03:50:52.829Z,87
2023-02-21T03:51:54.270Z,87
2023-02-21T03:52:55.656Z,87
2023-02-21T03:53:57.082Z,87
2023-02-21T03:54:58.485Z,87
2023-02-21T03:55:59.351Z,87.1
2023-02-21T03:57:00.760Z,87.1
2023-02-21T03:58:02.175Z,87.1
2023-02-21T03:59:03.430Z,87.1
2023-02-21T04:00:04.611Z,87.2
2023-02-21T04:01:05.721Z,87.2
2023-02-21T04:02:07.107Z,87.3
2023-02-21T04:03:08.523Z,87.3
2023-02-21T04:04:09.934Z,87.3
2023-02-21T04:05:11.358Z,87.3
2023-02-21T04:06:12.767Z,87.3
2023-02-21T04:07:14.210Z,87.4
2023-02-21T04:08:15.607Z,87.3
2023-02-21T04:09:17.021Z,87.4
2023-02-21T04:10:18.452Z,87.4
2023-02-21T04:11:19.845Z,87.4
2023-02-21T04:12:21.260Z,87.4
2023-02-21T04:13:22.673Z,87.4
2023-02-21T04:14:23.811Z,87.5
2023-02-21T04:15:24.951Z,87.5
2023-02-21T04:16:26.669Z,87.5
2023-02-21T04:17:28.044Z,87.6
2023-02-21T04:18:29.460Z,87.6
2023-02-21T04:19:30.877Z,87.6
2023-02-21T04:20:32.050Z,87.6
2023-02-21T04:21:33.191Z,87.7
2023-02-21T04:22:34.348Z,87.7
2023-02-21T04:23:35.754Z,87.7
2023-02-21T04:24:36.742Z,87.7
2023-02-21T04:25:37.880Z,87.7
2023-02-21T04:26:39.016Z,87.6
2023-02-21T04:27:40.431Z,87.6
2023-02-21T04:28:41.608Z,87.6
2023-02-21T04:29:43.018Z,87.6
2023-02-21T04:30:44.157Z,87.5
2023-02-21T04:31:45.932Z,87.5
2023-02-21T04:32:47.419Z,87.5
2023-02-21T04:33:48.791Z,87.5
2023-02-21T04:34:50.523Z,87.4
2023-02-21T04:35:52.149Z,87.4
2023-02-21T04:36:53.567Z,87.3
2023-02-21T04:37:54.505Z,87.3
2023-02-21T04:38:55.880Z,87.3
2023-02-21T04:39:57.062Z,87.3
2023-02-21T04:40:58.476Z,87.2
2023-02-21T04:41:59.617Z,87.2
2023-02-21T04:43:00.741Z,87.2
2023-02-21T04:44:02.175Z,87.2
2023-02-21T04:45:03.578Z,87.2
2023-02-21T04:46:05.165Z,87.1
2023-02-21T04:47:06.546Z,87.1
2023-02-21T04:48:07.964Z,87.1
2023-02-21T04:49:09.381Z,87.1
2023-02-21T04:50:10.794Z,87.1
2023-02-21T04:51:16.501Z,87.1
2023-02-21T04:52:17.207Z,87.1
2023-02-21T04:53:18.086Z,87.1
2023-02-21T04:54:19.260Z,87
2023-02-21T04:55:20.446Z,87
2023-02-21T04:56:21.865Z,86.9
2023-02-21T04:57:23.052Z,86.9
2023-02-21T04:58:36.401Z,86.9
2023-02-21T04:59:44.264Z,86.9
2023-02-21T05:00:46.061Z,87
2023-02-21T05:01:47.174Z,87
2023-02-21T05:02:48.307Z,87
2023-02-21T05:03:48.944Z,87
2023-02-21T05:04:50.412Z,87
2023-02-21T05:05:51.847Z,87
2023-02-21T05:06:53.258Z,87
2023-02-21T05:07:54.461Z,87
2023-02-21T05:08:55.870Z,87
2023-02-21T05:09:56.997Z,87
2023-02-21T05:10:58.407Z,87
2023-02-21T05:11:59.252Z,87
2023-02-21T05:13:00.678Z,87
2023-02-21T05:14:02.108Z,87
2023-02-21T05:15:03.505Z,87
2023-02-21T05:16:04.921Z,86.9
2023-02-21T05:17:06.332Z,86.9
2023-02-21T05:18:07.746Z,87
2023-02-21T05:19:09.166Z,87
2023-02-21T05:20:10.578Z,87
2023-02-21T05:21:12.117Z,87
2023-02-21T05:22:13.660Z,87
2023-02-21T05:23:15.318Z,87.1
2023-02-21T05:24:16.508Z,87.1
2023-02-21T05:25:17.511Z,87.1
2023-02-21T05:26:18.941Z,87.1
2023-02-21T05:27:20.116Z,87.1
2023-02-21T05:28:21.012Z,87.1
2023-02-21T05:29:22.191Z,87.2
2023-02-21T05:30:23.385Z,87.2
2023-02-21T05:31:24.870Z,87.2
2023-02-21T05:32:26.313Z,87.2
2023-02-21T05:33:27.575Z,87.2
2023-02-21T05:34:28.988Z,87.2
2023-02-21T05:35:30.130Z,87.2
2023-02-21T05:36:31.004Z,87.2
2023-02-21T05:37:32.438Z,87.3
2023-02-21T05:38:33.544Z,87.3
2023-02-21T05:39:34.872Z,87.4
2023-02-21T05:40:36.293Z,87.4
2023-02-21T05:41:37.428Z,87.4
2023-02-21T05:42:38.839Z,87.5
2023-02-21T05:43:40.256Z,87.5
2023-02-21T05:44:41.673Z,87.5
2023-02-21T05:45:42.658Z,87.5
2023-02-21T05:46:44.053Z,87.6
2023-02-21T05:47:45.472Z,87.6
2023-02-21T05:48:46.885Z,87.6
2023-02-21T05:49:48.016Z,87.7
2023-02-21T05:50:49.153Z,87.7
2023-02-21T05:51:50.290Z,87.8
2023-02-21T05:52:51.477Z,87.8
2023-02-21T05:53:52.981Z,87.9
2023-02-21T05:54:53.918Z,88
2023-02-21T05:55:55.307Z,88
2023-02-21T05:56:56.729Z,88.1
2023-02-21T05:57:58.047Z,88.2
2023-02-21T05:58:59.685Z,88.2
2023-02-21T06:00:00.862Z,88.3
2023-02-21T06:01:02.238Z,88.4
2023-02-21T06:02:03.330Z,88.4
2023-02-21T06:03:06.351Z,88.5
2023-02-21T06:04:07.768Z,88.6
2023-02-21T06:05:08.938Z,88.7
2023-02-21T06:06:10.359Z,88.7
2023-02-21T06:07:11.771Z,88.7
2023-02-21T06:08:14.917Z,88.7
2023-02-21T06:09:16.330Z,88.8
2023-02-21T06:10:17.772Z,88.8
2023-02-21T06:11:19.163Z,88.8
2023-02-21T06:12:20.585Z,88.8
2023-02-21T06:13:21.997Z,88.8
2023-02-21T06:14:23.417Z,88.8
2023-02-21T06:15:24.311Z,88.8
2023-02-21T06:16:25.450Z,88.8
2023-02-21T06:17:26.306Z,88.8
2023-02-21T06:18:27.719Z,88.9
2023-02-21T06:19:29.134Z,88.9
2023-02-21T06:20:30.552Z,88.9
2023-02-21T06:21:31.966Z,88.9
2023-02-21T06:22:33.377Z,89
2023-02-21T06:23:34.793Z,89
2023-02-21T06:24:35.929Z,89
2023-02-21T06:25:37.375Z,89
2023-02-21T06:26:38.764Z,89
2023-02-21T06:27:40.171Z,89.1
2023-02-21T06:28:41.313Z,89.1
2023-02-21T06:29:42.444Z,89.1
2023-02-21T06:30:44.052Z,89.1
2023-02-21T06:31:45.290Z,89.1
2023-02-21T06:32:46.412Z,89
2023-02-21T06:33:47.545Z,89
2023-02-21T06:34:48.961Z,88.9
2023-02-21T06:35:50.097Z,88.9
2023-02-21T06:36:51.512Z,88.9
2023-02-21T06:37:52.723Z,88.8
2023-02-21T06:38:53.621Z,88.8
2023-02-21T06:39:55.036Z,88.8
2023-02-21T06:40:56.492Z,88.7
2023-02-21T06:41:57.887Z,88.7
2023-02-21T06:42:59.299Z,88.7
2023-02-21T06:44:00.716Z,88.7
2023-02-21T06:45:02.137Z,88.7
2023-02-21T06:46:03.160Z,88.7
2023-02-21T06:47:04.356Z,88.7
2023-02-21T06:48:05.785Z,88.7
2023-02-21T06:49:07.201Z,88.6
2023-02-21T06:50:11.126Z,88.6
2023-02-21T06:51:12.636Z,88.6
2023-02-21T06:52:13.730Z,88.5
2023-02-21T06:53:14.867Z,88.4
2023-02-21T06:54:16.001Z,88.4
2023-02-21T06:55:16.615Z,88.4
2023-02-21T06:56:18.109Z,88.4
2023-02-21T06:57:19.565Z,88.3
2023-02-21T06:58:20.740Z,88.3
2023-02-21T06:59:22.158Z,88.2
2023-02-21T07:00:23.568Z,88.1
2023-02-21T07:01:25.052Z,88.1
2023-02-21T07:02:26.241Z,88.1
2023-02-21T07:03:27.659Z,88.1
2023-02-21T07:04:28.913Z,88.1
2023-02-21T07:05:30.369Z,88.1
2023-02-21T07:08:00.181Z,88.1
2023-02-21T07:09:01.596Z,88.1
2023-02-21T07:10:03.016Z,88.1
2023-02-21T07:11:04.425Z,88.1
2023-02-21T07:12:05.862Z,88.1
2023-02-21T07:13:07.254Z,88.1
2023-02-21T07:14:08.671Z,88.1
2023-02-21T07:15:10.091Z,88
2023-02-21T07:16:11.601Z,88
2023-02-21T07:17:12.985Z,88
2023-02-21T07:18:14.414Z,87.9
2023-02-21T07:20:17.175Z,87.9
2023-02-21T07:21:18.939Z,87.8
2023-02-21T07:22:20.348Z,87.8
2023-02-21T07:23:21.764Z,87.7
2023-02-21T07:24:22.900Z,87.7
2023-02-21T07:25:24.318Z,87.7
2023-02-21T07:26:25.731Z,87.6
2023-02-21T07:27:27.168Z,87.6
2023-02-21T07:28:28.571Z,87.6
2023-02-21T07:29:29.748Z,87.6
2023-02-21T07:30:30.765Z,87.5
2023-02-21T07:31:32.428Z,87.4
2023-02-21T07:32:33.935Z,87.4
2023-02-21T07:33:35.351Z,87.4
2023-02-21T07:34:36.771Z,87.5
2023-02-21T07:35:38.186Z,87.5
2023-02-21T07:36:40.966Z,87.6
2023-02-21T07:37:42.104Z,87.6
2023-02-21T07:38:43.538Z,87.5
2023-02-21T07:39:44.659Z,87.5
2023-02-21T07:40:46.097Z,87.5
2023-02-21T07:41:47.497Z,87.4
2023-02-21T07:42:48.966Z,87.4
2023-02-21T07:43:50.081Z,87.4
2023-02-21T07:44:51.263Z,87.4
2023-02-21T07:45:52.679Z,87.4
2023-02-21T07:46:54.093Z,87.4
2023-02-21T07:47:55.523Z,87.4
2023-02-21T07:48:56.700Z,87.4
2023-02-21T07:49:58.118Z,87.4
2023-02-21T07:50:59.534Z,87.4
2023-02-21T07:52:00.720Z,87.3
2023-02-21T07:53:01.862Z,87.2
2023-02-21T07:54:02.997Z,87.2
2023-02-21T07:55:04.128Z,87.1
2023-02-21T07:56:05.556Z,87
2023-02-21T07:57:06.962Z,86.9
2023-02-21T07:58:08.404Z,86.8
2023-02-21T07:59:09.788Z,86.7
2023-02-21T08:00:11.237Z,86.6
2023-02-21T08:01:12.779Z,86.6
2023-02-21T08:02:14.007Z,86.5
2023-02-21T08:03:15.148Z,86.5
2023-02-21T08:04:16.559Z,86.4
2023-02-21T08:05:17.696Z,86.3
2023-02-21T08:06:19.116Z,86.2
2023-02-21T08:07:20.249Z,86
2023-02-21T08:08:21.666Z,85.8
2023-02-21T08:09:22.573Z,85.7
2023-02-21T08:10:23.992Z,85.6
2023-02-21T08:11:25.146Z,85.5
2023-02-21T08:12:26.548Z,85.3
2023-02-21T08:13:28.003Z,85.1
2023-02-21T08:14:29.105Z,85.1
2023-02-21T08:15:30.521Z,85.1
2023-02-21T08:16:35.234Z,85
2023-02-21T08:17:36.714Z,84.9
2023-02-21T08:18:38.139Z,84.7
2023-02-21T08:19:39.317Z,84.6
2023-02-21T08:20:40.744Z,84.5
2023-02-21T08:21:43.256Z,84.5
2023-02-21T08:22:45.466Z,84.4
2023-02-21T08:23:46.877Z,84.4
2023-02-21T08:24:48.297Z,84.3
2023-02-21T08:25:49.453Z,84.2
2023-02-21T08:26:50.335Z,84
2023-02-21T08:27:51.731Z,83.9
2023-02-21T08:28:53.174Z,83.7
2023-02-21T08:29:54.075Z,83.5
2023-02-21T08:30:55.489Z,83.4
2023-02-21T08:31:57.013Z,83.2
2023-02-21T08:32:58.408Z,82.9
2023-02-21T08:33:59.833Z,82.8
2023-02-21T08:35:01.251Z,82.7
2023-02-21T08:36:02.661Z,82.5
2023-02-21T08:37:03.849Z,82.5
2023-02-21T08:38:05.295Z,82.5
2023-02-21T08:39:06.491Z,82.4
2023-02-21T08:40:07.428Z,82.3
2023-02-21T08:41:08.838Z,82.3
2023-02-21T08:42:10.256Z,82.2
2023-02-21T08:43:11.434Z,82.1
2023-02-21T08:44:12.890Z,81.9
2023-02-21T08:45:14.006Z,81.7
2023-02-21T08:46:15.862Z,81.7
2023-02-21T08:47:17.254Z,81.7
2023-02-21T08:48:18.670Z,81.7
2023-02-21T08:49:19.810Z,81.7
2023-02-21T08:50:21.227Z,81.7
2023-02-21T08:51:22.643Z,81.8
2023-02-21T08:52:24.063Z,81.7
2023-02-21T08:53:25.217Z,81.8
2023-02-21T08:54:26.613Z,81.8
2023-02-21T08:55:27.788Z,81.8
2023-02-21T08:56:29.213Z,81.8
2023-02-21T08:57:30.086Z,81.8
2023-02-21T08:58:31.584Z,81.8
2023-02-21T08:59:32.436Z,81.8
2023-02-21T09:00:33.536Z,81.8
2023-02-21T09:01:34.438Z,81.8
2023-02-21T09:02:35.620Z,81.8
2023-02-21T09:03:37.033Z,81.6
2023-02-21T09:04:38.450Z,81.4
2023-02-21T09:05:39.613Z,81.2
2023-02-21T09:06:40.683Z,81.1
2023-02-21T09:07:41.825Z,81.1
2023-02-21T09:08:43.236Z,80.9
2023-02-21T09:09:44.377Z,80.6
2023-02-21T09:10:45.809Z,80.4
2023-02-21T09:11:46.933Z,80.3
2023-02-21T09:12:48.349Z,79.9
2023-02-21T09:13:49.545Z,79.6
2023-02-21T09:14:50.975Z,79.7
2023-02-21T09:15:52.363Z,79.7
2023-02-21T09:16:53.787Z,79.3
2023-02-21T09:17:55.198Z,79.1
2023-02-21T09:18:56.617Z,79
2023-02-21T09:19:58.032Z,78.8
2023-02-21T09:20:59.458Z,78.8
2023-02-21T09:22:02.671Z,78.6
2023-02-21T09:23:04.091Z,78.5
2023-02-21T09:24:05.506Z,78.5
2023-02-21T09:25:06.653Z,78.6
2023-02-21T09:26:07.847Z,78.7
2023-02-21T09:27:09.256Z,78.5
2023-02-21T09:28:10.694Z,78.3
2023-02-21T09:29:12.116Z,78.3
2023-02-21T09:30:13.296Z,78.3
2023-02-21T09:31:15.440Z,78.4
2023-02-21T09:32:16.820Z,78.5
2023-02-21T09:33:18.003Z,78.4
2023-02-21T09:34:19.144Z,78.2
2023-02-21T09:35:20.558Z,78
2023-02-21T09:36:21.699Z,78
2023-02-21T09:37:23.121Z,77.8
2023-02-21T09:38:24.530Z,77.8
2023-02-21T09:39:25.950Z,77.8
2023-02-21T09:40:27.368Z,77.8
2023-02-21T09:41:28.506Z,77.9
2023-02-21T09:42:29.922Z,77.9
2023-02-21T09:43:31.133Z,77.6
2023-02-21T09:44:32.542Z,77.5
2023-02-21T09:45:33.870Z,77.3
2023-02-21T09:46:34.826Z,77.3
2023-02-21T09:47:35.963Z,77.3
2023-02-21T09:48:37.380Z,77.2
2023-02-21T09:49:38.517Z,77.2
2023-02-21T09:50:39.952Z,77.2
2023-02-21T09:51:40.791Z,77.2
2023-02-21T09:52:42.214Z,77.1
2023-02-21T09:53:43.630Z,77
2023-02-21T09:54:45.055Z,76.9
2023-02-21T09:55:46.464Z,76.6
2023-02-21T09:56:47.882Z,76.6
2023-02-21T09:57:49.296Z,76.7
2023-02-21T09:58:50.709Z,76.7
2023-02-21T09:59:52.127Z,76.7
2023-02-21T10:00:53.391Z,76.6
2023-02-21T10:01:54.489Z,76.6
2023-02-21T10:02:56.161Z,76.2
2023-02-21T10:03:57.300Z,76.3
2023-02-21T10:04:58.740Z,76.4
2023-02-21T10:06:00.020Z,76.5
2023-02-21T10:07:01.434Z,76.7
2023-02-21T10:08:02.852Z,76.6
2023-02-21T10:09:04.266Z,76.6
2023-02-21T10:10:05.683Z,76.4
2023-02-21T10:11:06.578Z,76.3
2023-02-21T10:12:07.997Z,76.1
2023-02-21T10:13:09.138Z,76.1
2023-02-21T10:14:10.323Z,76.2
2023-02-21T10:15:11.732Z,76.1
2023-02-21T10:16:13.339Z,76
2023-02-21T10:17:14.361Z,75.9
2023-02-21T10:18:17.271Z,75.9
2023-02-21T10:19:19.757Z,75.7
2023-02-21T10:20:21.029Z,75.7
2023-02-21T10:21:22.354Z,75.7
2023-02-21T10:22:23.256Z,75.8
2023-02-21T10:23:24.933Z,75.8
2023-02-21T10:24:26.351Z,75.8
2023-02-21T10:25:27.760Z,75.6
2023-02-21T10:26:29.178Z,75.7
2023-02-21T10:27:30.098Z,75.7
2023-02-21T10:28:31.521Z,75.7
2023-02-21T10:29:32.627Z,75.5
2023-02-21T10:30:34.653Z,75.4
2023-02-21T10:31:36.155Z,75.4
2023-02-21T10:32:37.668Z,75.4
2023-02-21T10:33:39.084Z,75.4
2023-02-21T10:34:40.265Z,75.5
2023-02-21T10:35:41.688Z,75.2
2023-02-21T10:36:43.096Z,74.9
2023-02-21T10:37:44.522Z,74.9
2023-02-21T10:38:45.701Z,75
2023-02-21T10:39:47.118Z,75.1
2023-02-21T10:40:48.296Z,75
2023-02-21T10:41:49.712Z,74.3
2023-02-21T10:42:50.844Z,73.9
2023-02-21T10:43:51.994Z,73.9
2023-02-21T10:44:53.123Z,73.6
2023-02-21T10:45:54.356Z,73.8
2023-02-21T10:46:55.499Z,73.8
2023-02-21T10:47:56.610Z,73.7
2023-02-21T10:48:57.543Z,73.6
2023-02-21T10:49:58.467Z,73.3
2023-02-21T10:50:59.594Z,73.3
2023-02-21T10:52:01.009Z,73.4
2023-02-21T10:53:02.401Z,73.3
2023-02-21T10:54:03.637Z,73.4
2023-02-21T10:55:05.044Z,73.5
2023-02-21T10:56:06.462Z,73.3
2023-02-21T10:57:07.611Z,73.1
2023-02-21T10:58:09.031Z,73.1
2023-02-21T10:59:10.442Z,72.8
2023-02-21T11:00:11.859Z,72.7
2023-02-21T11:01:14.617Z,72.7
2023-02-21T11:02:16.220Z,72.6
2023-02-21T11:03:17.988Z,72.3
2023-02-21T11:04:19.122Z,72.2
2023-02-21T11:05:20.306Z,71.9
2023-02-21T11:06:21.719Z,71.6
2023-02-21T11:07:23.136Z,71.7
2023-02-21T11:08:24.035Z,72.2
2023-02-21T11:09:25.449Z,72.3
2023-02-21T11:10:26.866Z,72.3
2023-02-21T11:11:28.287Z,72.2
2023-02-21T11:12:29.466Z,72.1
2023-02-21T11:13:30.883Z,72.3
2023-02-21T11:14:32.301Z,72.4
2023-02-21T11:15:33.319Z,72.2
2023-02-21T11:16:34.437Z,72
2023-02-21T11:17:35.636Z,71.7
2023-02-21T11:18:36.810Z,71.3
2023-02-21T11:19:38.227Z,70.9
2023-02-21T11:20:39.644Z,70.9
2023-02-21T11:21:40.786Z,70.6
2023-02-21T11:22:42.198Z,70.6
2023-02-21T11:23:43.095Z,70.5
2023-02-21T11:24:44.626Z,70.4
2023-02-21T11:25:46.042Z,70.1
2023-02-21T11:26:47.460Z,69.8
2023-02-21T11:27:48.598Z,69.7
2023-02-21T11:28:50.020Z,69.8
2023-02-21T11:29:51.202Z,69.9
2023-02-21T11:30:52.236Z,70
2023-02-21T11:31:53.674Z,70
2023-02-21T11:32:57.486Z,70.1
2023-02-21T11:33:58.857Z,70.2
2023-02-21T11:35:00.033Z,70.3
2023-02-21T11:36:01.449Z,70.4
2023-02-21T11:37:02.866Z,70.5
2023-02-21T11:38:04.305Z,70.5
2023-02-21T11:39:05.722Z,70.6
2023-02-21T11:40:06.909Z,70.7
2023-02-21T11:41:08.087Z,70.5
2023-02-21T11:42:09.501Z,70.1
2023-02-21T11:43:10.918Z,70
2023-02-21T11:44:12.340Z,69.8
2023-02-21T11:45:13.886Z,69.7
2023-02-21T11:46:15.022Z,69.8
2023-02-21T11:47:16.125Z,69.8
2023-02-21T11:48:17.568Z,69.7
2023-02-21T11:49:18.976Z,69.5
2023-02-21T11:50:20.389Z,69.2
2023-02-21T11:51:21.811Z,69.2
2023-02-21T11:52:22.669Z,69.3
2023-02-21T11:53:24.084Z,69.3
2023-02-21T11:54:24.950Z,69.2
2023-02-21T11:55:27.353Z,69.1
2023-02-21T11:56:28.763Z,69
2023-02-21T11:57:29.894Z,68.8
2023-02-21T11:58:31.311Z,68.6
2023-02-21T11:59:32.446Z,68.7
2023-02-21T12:00:33.874Z,68.8
2023-02-21T12:01:35.008Z,69
2023-02-21T12:02:36.220Z,69.1
2023-02-21T12:03:37.354Z,69.6
2023-02-21T12:04:38.758Z,69.9
2023-02-21T12:05:40.375Z,69.8
2023-02-21T12:06:41.483Z,69.8
2023-02-21T12:07:42.379Z,69.4
2023-02-21T12:08:43.799Z,69.3
2023-02-21T12:09:44.847Z,69.4
2023-02-21T12:10:46.260Z,69.5
2023-02-21T12:11:47.679Z,69.6
2023-02-21T12:12:48.817Z,69.2
2023-02-21T12:13:50.232Z,69.2
2023-02-21T12:14:51.650Z,69.1
2023-02-21T12:15:53.012Z,68.9
2023-02-21T12:16:54.008Z,68.7
2023-02-21T12:17:55.425Z,68.4
2023-02-21T12:18:56.600Z,68.4
2023-02-21T12:19:57.976Z,68.5
2023-02-21T12:20:59.118Z,68.2
2023-02-21T12:22:00.253Z,68.1
2023-02-21T12:23:01.806Z,68.1
2023-02-21T12:24:03.438Z,68.2
2023-02-21T12:25:04.889Z,68
2023-02-21T12:26:06.314Z,68
2023-02-21T12:27:07.722Z,68.2
2023-02-21T12:28:09.140Z,68.5
2023-02-21T12:29:10.044Z,68.6
2023-02-21T12:30:11.622Z,68.6
2023-02-21T12:31:13.415Z,68.3
2023-02-21T12:32:14.841Z,68.1
2023-02-21T12:33:16.317Z,67.5
2023-02-21T12:34:16.968Z,67.2
2023-02-21T12:35:18.409Z,66.9
2023-02-21T12:36:19.723Z,67
2023-02-21T12:37:21.140Z,66.9
2023-02-21T12:38:22.060Z,66.9
2023-02-21T12:39:23.466Z,67
2023-02-21T12:40:24.881Z,66.8
2023-02-21T12:41:26.293Z,66.3
2023-02-21T12:42:27.721Z,65.9
2023-02-21T12:43:29.135Z,66
2023-02-21T12:44:33.174Z,66
2023-02-21T12:45:34.593Z,66.3
2023-02-21T12:46:35.820Z,66.3
2023-02-21T12:47:36.741Z,66.3
2023-02-21T12:48:37.880Z,66.2
2023-02-21T12:49:39.047Z,66
2023-02-21T12:50:40.159Z,66
2023-02-21T12:51:41.593Z,66.1
2023-02-21T12:52:42.736Z,66
2023-02-21T12:53:43.909Z,66
2023-02-21T12:54:44.816Z,66.2
2023-02-21T12:55:46.240Z,66.3
2023-02-21T12:56:47.655Z,66.4
2023-02-21T12:57:48.788Z,66.5
2023-02-21T12:58:49.922Z,66.5
2023-02-21T12:59:51.223Z,66.4
2023-02-21T13:00:52.756Z,66.4
2023-02-21T13:01:53.792Z,66.5
2023-02-21T13:02:55.063Z,66.6
2023-02-21T13:03:56.293Z,66.8
2023-02-21T13:04:57.628Z,66.8
2023-02-21T13:05:59.051Z,67
2023-02-21T13:07:11.192Z,67.3
2023-02-21T13:08:12.588Z,67.5
2023-02-21T13:09:14.012Z,67.7
2023-02-21T13:10:15.424Z,67.9
2023-02-21T13:11:17.724Z,68.1
2023-02-21T13:12:19.146Z,68.2
2023-02-21T13:13:20.562Z,68.3
2023-02-21T13:14:21.980Z,68.4
2023-02-21T13:15:23.397Z,68.4
2023-02-21T13:16:25.055Z,68.4
2023-02-21T13:17:26.360Z,68.3
2023-02-21T13:18:27.784Z,68.2
2023-02-21T13:19:29.196Z,68.2
2023-02-21T13:20:30.652Z,68.3
2023-02-21T13:21:31.851Z,68.3
2023-02-21T13:22:33.032Z,68.3
2023-02-21T13:23:34.171Z,68.4
2023-02-21T13:24:35.599Z,68.4
2023-02-21T13:25:37.002Z,68.5
2023-02-21T13:26:38.254Z,68.5
2023-02-21T13:27:39.807Z,68.4
2023-02-21T13:28:40.995Z,68.4
2023-02-21T13:29:42.406Z,68.4
2023-02-21T13:30:44.005Z,68.4
2023-02-21T13:31:46.116Z,68.4
2023-02-21T13:32:47.874Z,68.3
2023-02-21T13:33:49.312Z,68.4
2023-02-21T13:34:50.787Z,68.6
2023-02-21T13:35:51.976Z,68.8
2023-02-21T13:36:53.380Z,68.8
2023-02-21T13:37:54.996Z,68.9
2023-02-21T13:38:56.455Z,69
2023-02-21T13:39:57.860Z,69.1
2023-02-21T13:40:59.278Z,69.1
2023-02-21T13:42:00.871Z,69
2023-02-21T13:43:02.293Z,69
2023-02-21T13:44:03.759Z,69.1
2023-02-21T13:45:05.307Z,69.1
2023-02-21T13:46:06.702Z,69.2
2023-02-21T13:47:08.112Z,69.1
2023-02-21T13:48:09.621Z,69